sensor_id;sensor_type;location;lat;lon;timestamp;P1;durP1;ratioP1;P2;durP2;ratioP2
74124;SDS011;62475;52.192;5.396;2023-04-24T00:01:15;2.50;;;1.37;;
74124;SDS011;62475;52.192;5.396;2023-04-24T00:03:42;1.70;;;0.93;;
74124;SDS011;62475;52.192;5.396;2023-04-24T00:06:07;1.83;;;1.30;;
74124;SDS011;62475;52.192;5.396;2023-04-24T00:08:33;1.83;;;1.15;;
74124;SDS011;62475;52.192;5.396;2023-04-24T00:10:59;2.25;;;1.00;;
74124;SDS011;62475;52.192;5.396;2023-04-24T00:13:24;1.33;;;0.80;;
74124;SDS011;62475;52.192;5.396;2023-04-24T00:15:50;2.25;;;0.90;;
74124;SDS011;62475;52.192;5.396;2023-04-24T00:18:15;2.00;;;1.27;;
74124;SDS011;62475;52.192;5.396;2023-04-24T00:20:40;1.95;;;1.23;;
74124;SDS011;62475;52.192;5.396;2023-04-24T00:23:06;4.13;;;1.75;;
74124;SDS011;62475;52.192;5.396;2023-04-24T00:25:31;4.43;;;1.45;;
74124;SDS011;62475;52.192;5.396;2023-04-24T00:27:56;5.13;;;2.28;;
74124;SDS011;62475;52.192;5.396;2023-04-24T00:30:22;3.83;;;1.95;;
74124;SDS011;62475;52.192;5.396;2023-04-24T00:32:47;2.58;;;1.20;;
74124;SDS011;62475;52.192;5.396;2023-04-24T00:35:13;3.38;;;1.02;;
74124;SDS011;62475;52.192;5.396;2023-04-24T00:37:39;1.30;;;0.82;;
74124;SDS011;62475;52.192;5.396;2023-04-24T00:40:05;0.80;;;0.55;;
74124;SDS011;62475;52.192;5.396;2023-04-24T00:42:31;1.50;;;0.77;;
74124;SDS011;62475;52.192;5.396;2023-04-24T00:44:56;1.20;;;0.50;;
74124;SDS011;62475;52.192;5.396;2023-04-24T00:47:22;1.27;;;0.68;;
74124;SDS011;62475;52.192;5.396;2023-04-24T00:49:49;0.90;;;0.70;;
74124;SDS011;62475;52.192;5.396;2023-04-24T00:52:14;2.90;;;0.70;;
74124;SDS011;62475;52.192;5.396;2023-04-24T00:54:42;0.75;;;0.38;;
74124;SDS011;62475;52.192;5.396;2023-04-24T00:57:09;1.30;;;0.70;;
74124;SDS011;62475;52.192;5.396;2023-04-24T01:19:44;1.15;;;0.65;;
74124;SDS011;62475;52.192;5.396;2023-04-24T01:22:10;0.93;;;0.73;;
74124;SDS011;62475;52.192;5.396;2023-04-24T01:24:37;1.63;;;0.90;;
74124;SDS011;62475;52.192;5.396;2023-04-24T01:27:03;1.92;;;0.85;;
74124;SDS011;62475;52.192;5.396;2023-04-24T01:29:29;2.15;;;1.27;;
74124;SDS011;62475;52.192;5.396;2023-04-24T01:31:54;1.95;;;1.10;;
74124;SDS011;62475;52.192;5.396;2023-04-24T01:34:20;2.60;;;1.30;;
74124;SDS011;62475;52.192;5.396;2023-04-24T01:36:46;3.58;;;1.80;;
74124;SDS011;62475;52.192;5.396;2023-04-24T01:39:13;3.22;;;1.67;;
74124;SDS011;62475;52.192;5.396;2023-04-24T01:41:38;3.85;;;2.03;;
74124;SDS011;62475;52.192;5.396;2023-04-24T01:44:04;4.43;;;2.50;;
74124;SDS011;62475;52.192;5.396;2023-04-24T01:46:29;4.75;;;2.40;;
74124;SDS011;62475;52.192;5.396;2023-04-24T01:48:56;4.45;;;2.70;;
74124;SDS011;62475;52.192;5.396;2023-04-24T01:51:24;5.68;;;3.17;;
74124;SDS011;62475;52.192;5.396;2023-04-24T01:53:50;6.38;;;3.83;;
74124;SDS011;62475;52.192;5.396;2023-04-24T01:56:16;5.32;;;3.25;;
74124;SDS011;62475;52.192;5.396;2023-04-24T01:58:41;6.85;;;4.10;;
74124;SDS011;62475;52.192;5.396;2023-04-24T02:01:08;5.53;;;3.90;;
74124;SDS011;62475;52.192;5.396;2023-04-24T02:03:33;6.38;;;3.90;;
74124;SDS011;62475;52.192;5.396;2023-04-24T02:05:58;9.57;;;5.13;;
74124;SDS011;62475;52.192;5.396;2023-04-24T02:08:24;8.40;;;4.40;;
74124;SDS011;62475;52.192;5.396;2023-04-24T02:10:50;6.38;;;3.97;;
74124;SDS011;62475;52.192;5.396;2023-04-24T02:13:15;8.95;;;4.95;;
74124;SDS011;62475;52.192;5.396;2023-04-24T02:15:41;8.43;;;5.05;;
74124;SDS011;62475;52.192;5.396;2023-04-24T02:18:07;8.65;;;4.72;;
74124;SDS011;62475;52.192;5.396;2023-04-24T02:20:32;7.95;;;5.03;;
74124;SDS011;62475;52.192;5.396;2023-04-24T02:23:00;10.30;;;5.72;;
74124;SDS011;62475;52.192;5.396;2023-04-24T02:25:25;9.88;;;5.32;;
74124;SDS011;62475;52.192;5.396;2023-04-24T02:27:50;10.00;;;5.38;;
74124;SDS011;62475;52.192;5.396;2023-04-24T02:30:16;10.23;;;5.63;;
74124;SDS011;62475;52.192;5.396;2023-04-24T02:32:41;10.75;;;6.20;;
74124;SDS011;62475;52.192;5.396;2023-04-24T02:35:06;10.67;;;6.13;;
74124;SDS011;62475;52.192;5.396;2023-04-24T02:37:32;11.10;;;6.60;;
74124;SDS011;62475;52.192;5.396;2023-04-24T02:39:57;15.45;;;6.80;;
74124;SDS011;62475;52.192;5.396;2023-04-24T02:42:23;9.27;;;5.20;;
74124;SDS011;62475;52.192;5.396;2023-04-24T02:44:48;9.43;;;5.00;;
74124;SDS011;62475;52.192;5.396;2023-04-24T02:47:13;8.60;;;4.22;;
74124;SDS011;62475;52.192;5.396;2023-04-24T02:49:39;6.03;;;3.53;;
74124;SDS011;62475;52.192;5.396;2023-04-24T02:52:04;4.03;;;2.70;;
74124;SDS011;62475;52.192;5.396;2023-04-24T02:54:29;5.63;;;3.20;;
74124;SDS011;62475;52.192;5.396;2023-04-24T02:56:54;4.10;;;2.53;;
74124;SDS011;62475;52.192;5.396;2023-04-24T02:59:20;5.10;;;2.35;;
74124;SDS011;62475;52.192;5.396;2023-04-24T03:01:45;3.73;;;2.17;;
74124;SDS011;62475;52.192;5.396;2023-04-24T03:04:10;4.10;;;1.98;;
74124;SDS011;62475;52.192;5.396;2023-04-24T03:06:36;2.83;;;1.65;;
74124;SDS011;62475;52.192;5.396;2023-04-24T03:09:01;2.47;;;1.50;;
74124;SDS011;62475;52.192;5.396;2023-04-24T03:11:28;4.70;;;1.15;;
74124;SDS011;62475;52.192;5.396;2023-04-24T03:13:53;2.38;;;1.30;;
74124;SDS011;62475;52.192;5.396;2023-04-24T03:16:18;1.85;;;0.93;;
74124;SDS011;62475;52.192;5.396;2023-04-24T03:18:44;2.00;;;1.03;;
74124;SDS011;62475;52.192;5.396;2023-04-24T03:21:09;1.85;;;1.00;;
74124;SDS011;62475;52.192;5.396;2023-04-24T03:23:35;2.10;;;1.00;;
74124;SDS011;62475;52.192;5.396;2023-04-24T03:26:00;1.67;;;1.00;;
74124;SDS011;62475;52.192;5.396;2023-04-24T03:28:25;4.65;;;1.40;;
74124;SDS011;62475;52.192;5.396;2023-04-24T03:30:51;1.90;;;1.05;;
74124;SDS011;62475;52.192;5.396;2023-04-24T03:33:16;1.90;;;1.00;;
74124;SDS011;62475;52.192;5.396;2023-04-24T03:35:42;1.52;;;0.85;;
74124;SDS011;62475;52.192;5.396;2023-04-24T03:38:07;3.28;;;1.25;;
74124;SDS011;62475;52.192;5.396;2023-04-24T03:40:32;3.00;;;1.30;;
74124;SDS011;62475;52.192;5.396;2023-04-24T03:42:58;2.03;;;1.25;;
74124;SDS011;62475;52.192;5.396;2023-04-24T03:45:24;2.42;;;1.35;;
74124;SDS011;62475;52.192;5.396;2023-04-24T03:47:49;2.75;;;1.67;;
74124;SDS011;62475;52.192;5.396;2023-04-24T03:50:15;2.70;;;1.48;;
74124;SDS011;62475;52.192;5.396;2023-04-24T03:52:40;4.28;;;1.95;;
74124;SDS011;62475;52.192;5.396;2023-04-24T03:55:05;2.50;;;1.30;;
74124;SDS011;62475;52.192;5.396;2023-04-24T03:57:31;3.30;;;1.70;;
74124;SDS011;62475;52.192;5.396;2023-04-24T03:59:57;3.87;;;1.73;;
74124;SDS011;62475;52.192;5.396;2023-04-24T04:02:22;4.85;;;2.08;;
74124;SDS011;62475;52.192;5.396;2023-04-24T04:04:47;3.45;;;1.80;;
74124;SDS011;62475;52.192;5.396;2023-04-24T04:07:12;4.30;;;2.00;;
74124;SDS011;62475;52.192;5.396;2023-04-24T04:09:38;3.97;;;1.98;;
74124;SDS011;62475;52.192;5.396;2023-04-24T04:12:03;5.43;;;2.20;;
74124;SDS011;62475;52.192;5.396;2023-04-24T04:14:29;3.50;;;1.92;;
74124;SDS011;62475;52.192;5.396;2023-04-24T04:16:54;5.13;;;2.03;;
74124;SDS011;62475;52.192;5.396;2023-04-24T04:19:19;3.60;;;1.98;;
74124;SDS011;62475;52.192;5.396;2023-04-24T04:21:45;4.10;;;2.17;;
74124;SDS011;62475;52.192;5.396;2023-04-24T04:24:10;5.35;;;1.70;;
74124;SDS011;62475;52.192;5.396;2023-04-24T04:26:36;5.55;;;1.73;;
74124;SDS011;62475;52.192;5.396;2023-04-24T04:29:02;3.33;;;1.48;;
74124;SDS011;62475;52.192;5.396;2023-04-24T04:31:28;2.35;;;1.27;;
74124;SDS011;62475;52.192;5.396;2023-04-24T04:33:54;3.38;;;1.52;;
74124;SDS011;62475;52.192;5.396;2023-04-24T04:36:19;2.42;;;1.52;;
74124;SDS011;62475;52.192;5.396;2023-04-24T04:38:45;2.88;;;1.45;;
74124;SDS011;62475;52.192;5.396;2023-04-24T04:41:11;4.35;;;1.42;;
74124;SDS011;62475;52.192;5.396;2023-04-24T04:43:37;3.08;;;1.67;;
74124;SDS011;62475;52.192;5.396;2023-04-24T04:46:04;1.77;;;1.10;;
74124;SDS011;62475;52.192;5.396;2023-04-24T04:48:30;3.05;;;2.00;;
74124;SDS011;62475;52.192;5.396;2023-04-24T04:50:56;4.75;;;1.95;;
74124;SDS011;62475;52.192;5.396;2023-04-24T04:53:22;4.47;;;2.38;;
74124;SDS011;62475;52.192;5.396;2023-04-24T04:55:47;6.45;;;1.85;;
74124;SDS011;62475;52.192;5.396;2023-04-24T04:58:12;3.08;;;1.85;;
74124;SDS011;62475;52.192;5.396;2023-04-24T05:00:39;4.80;;;2.13;;
74124;SDS011;62475;52.192;5.396;2023-04-24T05:03:04;4.53;;;2.38;;
74124;SDS011;62475;52.192;5.396;2023-04-24T05:05:30;3.85;;;2.08;;
74124;SDS011;62475;52.192;5.396;2023-04-24T05:07:55;7.37;;;2.40;;
74124;SDS011;62475;52.192;5.396;2023-04-24T05:10:20;4.40;;;2.38;;
74124;SDS011;62475;52.192;5.396;2023-04-24T05:12:46;4.47;;;2.22;;
74124;SDS011;62475;52.192;5.396;2023-04-24T05:15:11;6.28;;;2.55;;
74124;SDS011;62475;52.192;5.396;2023-04-24T05:17:36;5.90;;;3.08;;
74124;SDS011;62475;52.192;5.396;2023-04-24T05:20:02;4.47;;;2.53;;
74124;SDS011;62475;52.192;5.396;2023-04-24T05:22:31;4.70;;;2.47;;
74124;SDS011;62475;52.192;5.396;2023-04-24T05:24:57;5.57;;;2.78;;
74124;SDS011;62475;52.192;5.396;2023-04-24T05:27:22;7.53;;;2.97;;
74124;SDS011;62475;52.192;5.396;2023-04-24T05:29:48;7.55;;;3.50;;
74124;SDS011;62475;52.192;5.396;2023-04-24T05:32:13;9.80;;;3.15;;
74124;SDS011;62475;52.192;5.396;2023-04-24T05:34:39;7.22;;;2.97;;
74124;SDS011;62475;52.192;5.396;2023-04-24T05:37:04;7.10;;;3.42;;
74124;SDS011;62475;52.192;5.396;2023-04-24T05:39:33;6.47;;;3.35;;
74124;SDS011;62475;52.192;5.396;2023-04-24T05:41:58;8.00;;;3.22;;
74124;SDS011;62475;52.192;5.396;2023-04-24T05:44:24;8.85;;;4.00;;
74124;SDS011;62475;52.192;5.396;2023-04-24T05:46:49;9.98;;;3.92;;
74124;SDS011;62475;52.192;5.396;2023-04-24T05:49:15;8.43;;;3.33;;
74124;SDS011;62475;52.192;5.396;2023-04-24T05:51:40;6.78;;;3.67;;
74124;SDS011;62475;52.192;5.396;2023-04-24T05:54:06;6.18;;;2.90;;
74124;SDS011;62475;52.192;5.396;2023-04-24T05:56:31;7.57;;;2.70;;
74124;SDS011;62475;52.192;5.396;2023-04-24T05:58:56;5.40;;;2.67;;
74124;SDS011;62475;52.192;5.396;2023-04-24T06:01:22;5.28;;;2.63;;
74124;SDS011;62475;52.192;5.396;2023-04-24T06:03:47;7.82;;;2.75;;
74124;SDS011;62475;52.192;5.396;2023-04-24T06:06:13;5.20;;;2.75;;
74124;SDS011;62475;52.192;5.396;2023-04-24T06:08:38;5.40;;;2.17;;
74124;SDS011;62475;52.192;5.396;2023-04-24T06:11:04;5.70;;;1.98;;
74124;SDS011;62475;52.192;5.396;2023-04-24T06:13:30;4.13;;;1.80;;
74124;SDS011;62475;52.192;5.396;2023-04-24T06:15:55;4.15;;;1.75;;
74124;SDS011;62475;52.192;5.396;2023-04-24T06:18:20;4.30;;;1.73;;
74124;SDS011;62475;52.192;5.396;2023-04-24T06:20:46;3.15;;;1.35;;
74124;SDS011;62475;52.192;5.396;2023-04-24T06:23:11;2.22;;;1.00;;
74124;SDS011;62475;52.192;5.396;2023-04-24T06:25:37;2.50;;;0.98;;
74124;SDS011;62475;52.192;5.396;2023-04-24T06:28:03;2.10;;;1.02;;
74124;SDS011;62475;52.192;5.396;2023-04-24T06:30:28;3.30;;;1.42;;
74124;SDS011;62475;52.192;5.396;2023-04-24T06:32:53;5.45;;;2.55;;
74124;SDS011;62475;52.192;5.396;2023-04-24T06:35:19;11.57;;;4.33;;
74124;SDS011;62475;52.192;5.396;2023-04-24T06:37:44;16.95;;;6.75;;
74124;SDS011;62475;52.192;5.396;2023-04-24T06:40:10;19.52;;;8.07;;
74124;SDS011;62475;52.192;5.396;2023-04-24T06:42:36;20.90;;;8.95;;
74124;SDS011;62475;52.192;5.396;2023-04-24T06:45:01;19.60;;;8.82;;
74124;SDS011;62475;52.192;5.396;2023-04-24T06:47:27;21.42;;;9.50;;
74124;SDS011;62475;52.192;5.396;2023-04-24T06:49:52;28.13;;;11.13;;
74124;SDS011;62475;52.192;5.396;2023-04-24T06:52:18;24.90;;;8.75;;
74124;SDS011;62475;52.192;5.396;2023-04-24T06:54:44;20.88;;;10.48;;
74124;SDS011;62475;52.192;5.396;2023-04-24T06:57:09;19.83;;;10.25;;
74124;SDS011;62475;52.192;5.396;2023-04-24T06:59:37;24.13;;;9.77;;
74124;SDS011;62475;52.192;5.396;2023-04-24T07:02:03;26.92;;;10.50;;
74124;SDS011;62475;52.192;5.396;2023-04-24T07:04:28;29.73;;;11.70;;
74124;SDS011;62475;52.192;5.396;2023-04-24T07:06:54;25.75;;;10.63;;
74124;SDS011;62475;52.192;5.396;2023-04-24T07:09:22;26.25;;;11.25;;
74124;SDS011;62475;52.192;5.396;2023-04-24T07:11:48;24.20;;;11.23;;
74124;SDS011;62475;52.192;5.396;2023-04-24T07:14:14;21.48;;;10.63;;
74124;SDS011;62475;52.192;5.396;2023-04-24T07:16:40;22.63;;;11.20;;
74124;SDS011;62475;52.192;5.396;2023-04-24T07:19:05;22.10;;;10.82;;
74124;SDS011;62475;52.192;5.396;2023-04-24T07:21:31;18.35;;;9.25;;
74124;SDS011;62475;52.192;5.396;2023-04-24T07:23:57;21.25;;;9.77;;
74124;SDS011;62475;52.192;5.396;2023-04-24T07:26:23;22.42;;;9.77;;
74124;SDS011;62475;52.192;5.396;2023-04-24T07:28:48;19.15;;;8.27;;
74124;SDS011;62475;52.192;5.396;2023-04-24T07:31:14;21.95;;;10.25;;
74124;SDS011;62475;52.192;5.396;2023-04-24T07:33:40;26.10;;;10.68;;
74124;SDS011;62475;52.192;5.396;2023-04-24T07:36:07;25.17;;;10.68;;
74124;SDS011;62475;52.192;5.396;2023-04-24T07:38:32;20.35;;;9.77;;
74124;SDS011;62475;52.192;5.396;2023-04-24T07:40:57;22.10;;;9.38;;
74124;SDS011;62475;52.192;5.396;2023-04-24T07:43:23;15.45;;;8.32;;
74124;SDS011;62475;52.192;5.396;2023-04-24T07:45:49;17.02;;;8.35;;
74124;SDS011;62475;52.192;5.396;2023-04-24T07:48:15;21.23;;;8.35;;
74124;SDS011;62475;52.192;5.396;2023-04-24T07:50:41;22.92;;;9.43;;
74124;SDS011;62475;52.192;5.396;2023-04-24T07:53:07;19.38;;;8.73;;
74124;SDS011;62475;52.192;5.396;2023-04-24T07:55:32;23.60;;;10.02;;
74124;SDS011;62475;52.192;5.396;2023-04-24T07:57:57;17.23;;;8.98;;
74124;SDS011;62475;52.192;5.396;2023-04-24T08:00:23;19.83;;;9.57;;
74124;SDS011;62475;52.192;5.396;2023-04-24T08:02:48;20.50;;;8.48;;
74124;SDS011;62475;52.192;5.396;2023-04-24T08:05:13;22.50;;;9.43;;
74124;SDS011;62475;52.192;5.396;2023-04-24T08:07:39;23.83;;;9.18;;
74124;SDS011;62475;52.192;5.396;2023-04-24T08:10:04;21.73;;;8.90;;
74124;SDS011;62475;52.192;5.396;2023-04-24T08:12:30;16.05;;;5.75;;
74124;SDS011;62475;52.192;5.396;2023-04-24T08:14:56;12.65;;;5.97;;
74124;SDS011;62475;52.192;5.396;2023-04-24T08:17:21;16.35;;;6.63;;
74124;SDS011;62475;52.192;5.396;2023-04-24T08:19:47;21.30;;;6.50;;
74124;SDS011;62475;52.192;5.396;2023-04-24T08:22:16;15.52;;;5.93;;
74124;SDS011;62475;52.192;5.396;2023-04-24T08:24:42;19.92;;;7.35;;
74124;SDS011;62475;52.192;5.396;2023-04-24T08:27:07;18.27;;;5.95;;
74124;SDS011;62475;52.192;5.396;2023-04-24T08:29:35;17.83;;;5.38;;
74124;SDS011;62475;52.192;5.396;2023-04-24T08:32:01;13.15;;;4.65;;
74124;SDS011;62475;52.192;5.396;2023-04-24T08:34:26;11.40;;;3.95;;
74124;SDS011;62475;52.192;5.396;2023-04-24T08:36:51;15.82;;;4.82;;
74124;SDS011;62475;52.192;5.396;2023-04-24T08:39:17;13.77;;;4.32;;
74124;SDS011;62475;52.192;5.396;2023-04-24T08:41:43;13.48;;;4.68;;
74124;SDS011;62475;52.192;5.396;2023-04-24T08:44:10;11.60;;;3.85;;
74124;SDS011;62475;52.192;5.396;2023-04-24T08:46:39;18.25;;;4.93;;
74124;SDS011;62475;52.192;5.396;2023-04-24T08:49:05;16.75;;;5.13;;
74124;SDS011;62475;52.192;5.396;2023-04-24T08:51:31;16.13;;;6.10;;
74124;SDS011;62475;52.192;5.396;2023-04-24T08:54:01;22.77;;;6.57;;
74124;SDS011;62475;52.192;5.396;2023-04-24T08:56:28;13.30;;;5.15;;
74124;SDS011;62475;52.192;5.396;2023-04-24T08:58:55;17.27;;;5.55;;
74124;SDS011;62475;52.192;5.396;2023-04-24T09:01:24;15.85;;;5.40;;
74124;SDS011;62475;52.192;5.396;2023-04-24T09:03:50;13.10;;;4.00;;
74124;SDS011;62475;52.192;5.396;2023-04-24T09:06:18;7.82;;;2.85;;
74124;SDS011;62475;52.192;5.396;2023-04-24T09:08:46;7.78;;;2.65;;
74124;SDS011;62475;52.192;5.396;2023-04-24T09:11:14;9.30;;;2.80;;
74124;SDS011;62475;52.192;5.396;2023-04-24T09:13:40;8.68;;;2.67;;
74124;SDS011;62475;52.192;5.396;2023-04-24T09:16:06;16.85;;;2.38;;
74124;SDS011;62475;52.192;5.396;2023-04-24T09:18:32;7.75;;;2.00;;
74124;SDS011;62475;52.192;5.396;2023-04-24T09:20:58;10.43;;;2.20;;
74124;SDS011;62475;52.192;5.396;2023-04-24T09:23:27;10.65;;;2.55;;
74124;SDS011;62475;52.192;5.396;2023-04-24T09:25:55;8.30;;;2.17;;
74124;SDS011;62475;52.192;5.396;2023-04-24T09:28:29;11.32;;;2.38;;
74124;SDS011;62475;52.192;5.396;2023-04-24T09:31:02;9.20;;;2.53;;
74124;SDS011;62475;52.192;5.396;2023-04-24T09:33:29;5.65;;;2.03;;
74124;SDS011;62475;52.192;5.396;2023-04-24T09:35:56;6.82;;;2.15;;
74124;SDS011;62475;52.192;5.396;2023-04-24T09:38:31;7.80;;;2.00;;
74124;SDS011;62475;52.192;5.396;2023-04-24T09:40:58;8.65;;;2.50;;
74124;SDS011;62475;52.192;5.396;2023-04-24T09:43:26;7.75;;;2.22;;
74124;SDS011;62475;52.192;5.396;2023-04-24T09:45:52;5.97;;;2.10;;
74124;SDS011;62475;52.192;5.396;2023-04-24T09:48:29;7.97;;;2.28;;
74124;SDS011;62475;52.192;5.396;2023-04-24T09:50:55;8.30;;;1.70;;
74124;SDS011;62475;52.192;5.396;2023-04-24T09:53:24;9.48;;;2.00;;
74124;SDS011;62475;52.192;5.396;2023-04-24T09:55:50;10.27;;;2.28;;
74124;SDS011;62475;52.192;5.396;2023-04-24T09:58:17;7.82;;;2.10;;
74124;SDS011;62475;52.192;5.396;2023-04-24T10:00:42;8.68;;;1.80;;
74124;SDS011;62475;52.192;5.396;2023-04-24T10:03:07;8.25;;;2.28;;
74124;SDS011;62475;52.192;5.396;2023-04-24T10:05:36;11.15;;;2.30;;
74124;SDS011;62475;52.192;5.396;2023-04-24T10:08:04;9.80;;;2.03;;
74124;SDS011;62475;52.192;5.396;2023-04-24T10:10:30;6.20;;;2.10;;
74124;SDS011;62475;52.192;5.396;2023-04-24T10:12:56;5.78;;;2.05;;
74124;SDS011;62475;52.192;5.396;2023-04-24T10:15:22;4.53;;;0.93;;
74124;SDS011;62475;52.192;5.396;2023-04-24T10:17:48;6.32;;;1.75;;
74124;SDS011;62475;52.192;5.396;2023-04-24T10:20:21;3.08;;;1.45;;
74124;SDS011;62475;52.192;5.396;2023-04-24T10:22:48;7.40;;;1.50;;
74124;SDS011;62475;52.192;5.396;2023-04-24T10:25:16;4.43;;;1.00;;
74124;SDS011;62475;52.192;5.396;2023-04-24T10:27:43;4.00;;;1.58;;
74124;SDS011;62475;52.192;5.396;2023-04-24T10:30:11;2.58;;;0.63;;
74124;SDS011;62475;52.192;5.396;2023-04-24T10:32:37;4.45;;;0.90;;
74124;SDS011;62475;52.192;5.396;2023-04-24T10:35:03;6.38;;;1.35;;
74124;SDS011;62475;52.192;5.396;2023-04-24T10:37:28;3.80;;;1.20;;
74124;SDS011;62475;52.192;5.396;2023-04-24T10:40:02;2.08;;;0.90;;
74124;SDS011;62475;52.192;5.396;2023-04-24T10:42:27;5.28;;;0.98;;
74124;SDS011;62475;52.192;5.396;2023-04-24T10:44:53;3.88;;;0.90;;
74124;SDS011;62475;52.192;5.396;2023-04-24T10:47:19;4.50;;;1.20;;
74124;SDS011;62475;52.192;5.396;2023-04-24T10:49:44;4.05;;;1.02;;
74124;SDS011;62475;52.192;5.396;2023-04-24T10:52:10;2.22;;;0.70;;
74124;SDS011;62475;52.192;5.396;2023-04-24T10:59:46;6.57;;;1.17;;
74124;SDS011;62475;52.192;5.396;2023-04-24T11:02:14;4.93;;;0.90;;
74124;SDS011;62475;52.192;5.396;2023-04-24T11:04:42;4.35;;;1.20;;
74124;SDS011;62475;52.192;5.396;2023-04-24T11:07:08;2.28;;;0.80;;
74124;SDS011;62475;52.192;5.396;2023-04-24T11:09:35;4.93;;;0.98;;
74124;SDS011;62475;52.192;5.396;2023-04-24T11:15:20;5.82;;;1.05;;
74124;SDS011;62475;52.192;5.396;2023-04-24T11:17:31;5.60;;;0.82;;
74124;SDS011;62475;52.192;5.396;2023-04-24T11:20:08;6.43;;;0.98;;
74124;SDS011;62475;52.192;5.396;2023-04-24T11:22:35;2.20;;;0.77;;
74124;SDS011;62475;52.192;5.396;2023-04-24T11:25:02;3.65;;;0.82;;
74124;SDS011;62475;52.192;5.396;2023-04-24T11:27:29;2.55;;;0.73;;
74124;SDS011;62475;52.192;5.396;2023-04-24T11:34:54;3.78;;;0.90;;
74124;SDS011;62475;52.192;5.396;2023-04-24T11:37:21;4.63;;;0.93;;
74124;SDS011;62475;52.192;5.396;2023-04-24T11:39:50;2.05;;;0.70;;
74124;SDS011;62475;52.192;5.396;2023-04-24T11:42:16;1.85;;;0.90;;
74124;SDS011;62475;52.192;5.396;2023-04-24T11:44:43;2.50;;;0.52;;
74124;SDS011;62475;52.192;5.396;2023-04-24T11:47:15;1.30;;;0.50;;
74124;SDS011;62475;52.192;5.396;2023-04-24T11:49:40;0.80;;;0.50;;
74124;SDS011;62475;52.192;5.396;2023-04-24T11:52:06;1.95;;;0.50;;
74124;SDS011;62475;52.192;5.396;2023-04-24T11:54:31;0.93;;;0.20;;
74124;SDS011;62475;52.192;5.396;2023-04-24T11:56:57;1.50;;;0.50;;
74124;SDS011;62475;52.192;5.396;2023-04-24T11:59:22;1.05;;;0.45;;
74124;SDS011;62475;52.192;5.396;2023-04-24T12:01:48;1.15;;;0.60;;
74124;SDS011;62475;52.192;5.396;2023-04-24T12:04:15;1.17;;;0.70;;
74124;SDS011;62475;52.192;5.396;2023-04-24T12:07:03;1.20;;;0.52;;
74124;SDS011;62475;52.192;5.396;2023-04-24T12:09:28;1.27;;;0.20;;
74124;SDS011;62475;52.192;5.396;2023-04-24T12:11:54;3.53;;;0.85;;
74124;SDS011;62475;52.192;5.396;2023-04-24T12:14:23;6.22;;;1.27;;
74124;SDS011;62475;52.192;5.396;2023-04-24T12:16:52;2.17;;;0.88;;
74124;SDS011;62475;52.192;5.396;2023-04-24T12:19:22;3.05;;;0.70;;
74124;SDS011;62475;52.192;5.396;2023-04-24T12:21:59;3.65;;;0.50;;
74124;SDS011;62475;52.192;5.396;2023-04-24T12:24:28;4.68;;;0.50;;
74124;SDS011;62475;52.192;5.396;2023-04-24T12:26:55;1.83;;;0.45;;
74124;SDS011;62475;52.192;5.396;2023-04-24T12:29:21;1.88;;;0.60;;
74124;SDS011;62475;52.192;5.396;2023-04-24T12:31:47;3.75;;;0.30;;
74124;SDS011;62475;52.192;5.396;2023-04-24T12:34:19;3.28;;;0.75;;
74124;SDS011;62475;52.192;5.396;2023-04-24T12:36:45;1.92;;;0.80;;
74124;SDS011;62475;52.192;5.396;2023-04-24T12:39:17;1.67;;;0.85;;
74124;SDS011;62475;52.192;5.396;2023-04-24T12:41:56;2.20;;;0.60;;
74124;SDS011;62475;52.192;5.396;2023-04-24T12:44:31;5.00;;;1.35;;
74124;SDS011;62475;52.192;5.396;2023-04-24T12:46:59;4.55;;;0.90;;
74124;SDS011;62475;52.192;5.396;2023-04-24T12:49:25;3.83;;;0.90;;
74124;SDS011;62475;52.192;5.396;2023-04-24T12:51:50;3.50;;;0.82;;
74124;SDS011;62475;52.192;5.396;2023-04-24T12:54:16;4.20;;;0.93;;
74124;SDS011;62475;52.192;5.396;2023-04-24T12:56:41;5.22;;;0.98;;
74124;SDS011;62475;52.192;5.396;2023-04-24T12:59:06;11.95;;;2.03;;
74124;SDS011;62475;52.192;5.396;2023-04-24T13:01:32;8.90;;;1.90;;
74124;SDS011;62475;52.192;5.396;2023-04-24T13:03:57;6.20;;;2.35;;
74124;SDS011;62475;52.192;5.396;2023-04-24T13:06:23;7.85;;;1.80;;
74124;SDS011;62475;52.192;5.396;2023-04-24T13:08:48;7.72;;;1.95;;
74124;SDS011;62475;52.192;5.396;2023-04-24T13:11:13;7.45;;;2.17;;
74124;SDS011;62475;52.192;5.396;2023-04-24T13:13:39;9.50;;;1.90;;
74124;SDS011;62475;52.192;5.396;2023-04-24T13:16:05;12.00;;;1.60;;
74124;SDS011;62475;52.192;5.396;2023-04-24T13:18:30;7.15;;;1.67;;
74124;SDS011;62475;52.192;5.396;2023-04-24T13:20:55;10.23;;;1.70;;
74124;SDS011;62475;52.192;5.396;2023-04-24T13:23:21;9.57;;;1.90;;
74124;SDS011;62475;52.192;5.396;2023-04-24T13:25:47;6.15;;;1.70;;
74124;SDS011;62475;52.192;5.396;2023-04-24T13:28:13;12.98;;;2.15;;
74124;SDS011;62475;52.192;5.396;2023-04-24T13:30:39;5.85;;;1.48;;
74124;SDS011;62475;52.192;5.396;2023-04-24T13:33:04;11.65;;;3.15;;
74124;SDS011;62475;52.192;5.396;2023-04-24T13:35:30;7.93;;;1.48;;
74124;SDS011;62475;52.192;5.396;2023-04-24T13:37:55;8.07;;;1.67;;
74124;SDS011;62475;52.192;5.396;2023-04-24T13:40:21;9.30;;;1.75;;
74124;SDS011;62475;52.192;5.396;2023-04-24T13:42:46;7.43;;;1.75;;
74124;SDS011;62475;52.192;5.396;2023-04-24T13:45:11;11.02;;;2.17;;
74124;SDS011;62475;52.192;5.396;2023-04-24T13:47:37;9.85;;;2.22;;
74124;SDS011;62475;52.192;5.396;2023-04-24T13:50:05;7.00;;;1.65;;
74124;SDS011;62475;52.192;5.396;2023-04-24T13:52:32;3.47;;;1.50;;
74124;SDS011;62475;52.192;5.396;2023-04-24T13:54:57;6.57;;;2.17;;
74124;SDS011;62475;52.192;5.396;2023-04-24T13:57:22;8.27;;;2.75;;
74124;SDS011;62475;52.192;5.396;2023-04-24T13:59:48;8.45;;;1.60;;
74124;SDS011;62475;52.192;5.396;2023-04-24T14:02:13;6.27;;;1.93;;
74124;SDS011;62475;52.192;5.396;2023-04-24T14:04:38;5.68;;;1.48;;
74124;SDS011;62475;52.192;5.396;2023-04-24T14:07:04;13.05;;;1.60;;
74124;SDS011;62475;52.192;5.396;2023-04-24T14:09:29;6.28;;;1.67;;
74124;SDS011;62475;52.192;5.396;2023-04-24T14:11:55;3.70;;;1.65;;
74124;SDS011;62475;52.192;5.396;2023-04-24T14:14:20;6.30;;;1.40;;
74124;SDS011;62475;52.192;5.396;2023-04-24T14:16:47;4.90;;;1.65;;
74124;SDS011;62475;52.192;5.396;2023-04-24T14:19:12;13.70;;;2.78;;
74124;SDS011;62475;52.192;5.396;2023-04-24T14:21:37;8.23;;;3.08;;
74124;SDS011;62475;52.192;5.396;2023-04-24T14:24:03;7.97;;;1.90;;
74124;SDS011;62475;52.192;5.396;2023-04-24T14:26:28;6.40;;;1.70;;
74124;SDS011;62475;52.192;5.396;2023-04-24T14:28:53;6.93;;;2.08;;
74124;SDS011;62475;52.192;5.396;2023-04-24T14:31:19;6.32;;;2.20;;
74124;SDS011;62475;52.192;5.396;2023-04-24T14:33:45;8.07;;;2.05;;
74124;SDS011;62475;52.192;5.396;2023-04-24T14:36:10;14.32;;;2.45;;
74124;SDS011;62475;52.192;5.396;2023-04-24T14:38:35;7.03;;;1.80;;
74124;SDS011;62475;52.192;5.396;2023-04-24T14:41:01;6.90;;;1.95;;
74124;SDS011;62475;52.192;5.396;2023-04-24T14:43:27;8.48;;;2.42;;
74124;SDS011;62475;52.192;5.396;2023-04-24T14:45:52;6.63;;;1.67;;
74124;SDS011;62475;52.192;5.396;2023-04-24T14:48:18;7.28;;;2.10;;
74124;SDS011;62475;52.192;5.396;2023-04-24T14:50:43;10.77;;;2.60;;
74124;SDS011;62475;52.192;5.396;2023-04-24T14:53:09;5.95;;;1.73;;
74124;SDS011;62475;52.192;5.396;2023-04-24T14:55:34;5.53;;;1.48;;
74124;SDS011;62475;52.192;5.396;2023-04-24T14:58:01;5.93;;;1.42;;
74124;SDS011;62475;52.192;5.396;2023-04-24T15:00:28;6.90;;;1.40;;
74124;SDS011;62475;52.192;5.396;2023-04-24T15:02:53;8.88;;;1.90;;
74124;SDS011;62475;52.192;5.396;2023-04-24T15:05:20;6.93;;;1.58;;
74124;SDS011;62475;52.192;5.396;2023-04-24T15:07:45;6.33;;;1.47;;
74124;SDS011;62475;52.192;5.396;2023-04-24T15:10:10;3.80;;;1.50;;